UNCW NC US WEATHERSTEM current weather conditions

sailwx.info

Air temperature 25.0° C
Dewpoint 23.1° C

Last reported at 2020-Jul-06 02:50 UTC.
Time now 2020-Jul-06 06:04 UTC

Location: N 34°14' W 077°52'.
View on Google Maps.

See reports from other nearby stations

  
Tides and Currents Weather Stations Pressure Air Temp Water Temp Dewpoint Dewpoint Depression Visibility Wind Speed Wind Dir Waves Ship Positions
date/time (UTC)wind fromknots sea level pressurealtimeterstation pressurevisibilityair tempwater tempwave heightnotes
2020-Jul-06 02:50 25.0
2020-Jul-06 02:40 25.0
2020-Jul-06 01:40 260 0 gusting 0 25.6
2020-Jul-06 01:10 26.1
2020-Jul-06 01:00 26.7
2020-Jul-06 00:50 030 4 gusting 4 26.7
2020-Jul-06 00:20 030 4 gusting 4 27.8
2020-Jul-05 23:50 300 5 gusting 5 28.9
2020-Jul-05 23:30 300 6 gusting 6 29.4
2020-Jul-05 23:20 300 6 gusting 6 30.0
2020-Jul-05 22:40 190 5 gusting 5 30.6
2020-Jul-05 22:30 180 5 gusting 5 30.6
2020-Jul-05 22:20 180 5 gusting 5 31.1
2020-Jul-05 22:10 190 6 gusting 6 31.1
2020-Jul-05 21:50 180 5 gusting 5 31.1
2020-Jul-05 21:30 180 5 gusting 5 31.7
2020-Jul-05 20:10 140 6 gusting 6 32.2
2020-Jul-05 20:00 140 6 gusting 6 32.2
2020-Jul-05 19:50 190 8 gusting 8 31.7
2020-Jul-05 18:30 080 6 gusting 6 32.8
2020-Jul-05 18:10 010 5 gusting 5 33.3
2020-Jul-05 17:50 160 6 gusting 6 32.8
2020-Jul-05 17:40 170 6 gusting 6 33.3
2020-Jul-05 17:30 170 5 gusting 5 33.3
2020-Jul-05 15:50 320 4 gusting 4 32.2
2020-Jul-05 15:40 320 4 gusting 4 31.1
2020-Jul-05 14:30 300 4 gusting 4 29.4
2020-Jul-05 13:40 280 6 gusting 6 28.3
2020-Jul-05 13:30 290 6 gusting 6 27.8
2020-Jul-05 13:20 290 6 gusting 6 27.8
2020-Jul-05 13:10 290 6 gusting 6 27.2
2020-Jul-05 13:00 290 6 gusting 6 27.2
2020-Jul-05 12:50 280 4 gusting 4 26.7
2020-Jul-05 12:10 280 2 gusting 2 25.6
2020-Jul-05 10:40 260 3 gusting 3 23.9
2020-Jul-05 10:10 230 2 gusting 2 23.9
2020-Jul-05 09:30 250 4 gusting 4 23.9
2020-Jul-05 09:20 250 4 gusting 4 23.9
2020-Jul-05 09:10 250 5 gusting 5 23.9
2020-Jul-05 09:00 250 5 gusting 5 23.9
2020-Jul-05 06:50 250 4 gusting 4 25.6
2020-Jul-05 06:10 250 5 gusting 5 26.1
2020-Jul-05 06:00 250 5 gusting 5 26.1
2020-Jul-05 05:50 240 5 gusting 5 26.1
2020-Jul-05 05:30 240 5 gusting 5 26.1
2020-Jul-05 05:20 240 5 gusting 5 26.1
2020-Jul-05 03:50 240 4 gusting 4 26.7
2020-Jul-05 02:30 220 5 gusting 5 27.2
2020-Jul-05 02:10 210 5 gusting 5 27.2
2020-Jul-05 02:00 210 5 gusting 5 27.8
2020-Jul-05 01:00 210 4 gusting 4 28.3
2020-Jul-05 00:10 210 6 gusting 6 30.0
2020-Jul-04 23:30 220 6 gusting 6 31.1
2020-Jul-04 22:50 210 7 gusting 7 31.7
2020-Jul-04 21:30 220 9 gusting 9 32.2
2020-Jul-04 21:10 220 11 gusting 11 32.2
2020-Jul-04 21:00 220 11 gusting 11 32.8
2020-Jul-04 20:30 190 10 gusting 10 32.8
2020-Jul-04 20:20 190 10 gusting 10 33.3
2020-Jul-04 19:50 200 2 gusting 2 33.9
2020-Jul-04 19:40 200 2 gusting 2 34.4
2020-Jul-04 19:00 34.4
2020-Jul-04 18:40 220 5 gusting 5 33.9
2020-Jul-04 18:30 220 5 gusting 5 33.9
2020-Jul-04 18:10 270 4 gusting 4 33.9
2020-Jul-04 18:00 270 4 gusting 4 33.9
2020-Jul-04 17:50 230 6 gusting 6 34.4
2020-Jul-04 17:30 240 6 gusting 6 33.9
2020-Jul-04 14:40 290 5 gusting 5 31.1
2020-Jul-04 14:30 290 5 gusting 5 31.1
2020-Jul-04 14:20 280 5 gusting 5 30.6
2020-Jul-04 12:50 300 6 gusting 6 27.8
2020-Jul-04 12:20 290 6 gusting 6 26.7
2020-Jul-04 11:40 290 6 gusting 6 25.6
2020-Jul-04 11:20 290 5 gusting 5 24.4
2020-Jul-04 11:10 290 5 gusting 5 24.4
2020-Jul-04 11:00 290 5 gusting 5 23.9
2020-Jul-04 10:10 260 5 gusting 5 23.3
2020-Jul-04 09:40 270 4 gusting 4 23.3
2020-Jul-04 09:30 270 4 gusting 4 23.9
2020-Jul-04 09:10 260 4 gusting 4 23.9
2020-Jul-04 07:50 260 5 gusting 5 23.9
2020-Jul-04 07:40 260 5 gusting 5 23.9